• Join FlightAware (Why Join?)
  • Login
  • US Flag 
02:58PM EDT


 

Airport Tracker/Info


-or-


 

Live Flight TrackerFlight Track Log ✈ N71AA ✈ 08-Aug-2013 ✈ PAKT / KTN - PAJN / JNU

Flight Track Log - Related Links

Times and Time Zones

All times are in EDT time to prevent confusion due to time zone crossing. See the N71AA flight status page for this flight to view local times or setup timezone preferences in your user account.

Time Position Orientation Groundspeed Altitude Reporting Facility
EDT Latitude Longitude Course Direction KTS MPH feet Rate Location/Type
08:57PM 55.2667 -131.6500 327° Northwest 120 138 5,500  Level Anchorage Center
08:58PM 55.2333 -131.6500 180° South 180 207 7,000 1,800 Climbing Anchorage Center
08:59PM 55.1833 -131.6167 159° South 180 207 9,200 2,040 Climbing Anchorage Center
09:00PM 55.1667 -131.6833 246° West 210 242 11,100 1,800 Climbing Anchorage Center
09:01PM 55.1854 -131.7064 327° Northwest  Level FlightAware Approximate
09:02PM 55.2510 -131.7801 327° Northwest  Level FlightAware Approximate
09:02PM 55.2500 -131.7833 326° Northwest 180 207 14,700  Level Anchorage Center
09:03PM 55.3000 -131.8333 330° Northwest 190 219 16,600 1,620 Climbing Anchorage Center
09:04PM 55.3500 -131.8833 330° Northwest 200 230 18,000 660 Climbing Anchorage Center
09:05PM 55.4000 -131.9333 330° Northwest 240 276 18,000  Level Anchorage Center
09:06PM 55.4667 -132.0167 325° Northwest 270 311 18,000  Level Anchorage Center
09:07PM 55.5333 -132.0833 330° Northwest 270 311 18,000  Level Anchorage Center
09:08PM 55.6000 -132.1500 331° Northwest 260 299 18,000  Level Anchorage Center
09:09PM 55.6500 -132.2167 323° Northwest 270 311 18,000  Level Anchorage Center
09:10PM 55.7167 -132.2833 331° Northwest 270 311 18,000  Level Anchorage Center
09:11PM 55.7833 -132.3500 331° Northwest 260 299 18,000  Level Anchorage Center
09:12PM 55.8333 -132.4333 317° Northwest 260 299 18,000  Level Anchorage Center
09:13PM 55.9000 -132.5000 331° Northwest 270 311 18,000  Level Anchorage Center
09:14PM 55.9667 -132.5667 331° Northwest 260 299 18,000  Level Anchorage Center
09:15PM 56.0167 -132.6333 323° Northwest 260 299 18,000  Level Anchorage Center
09:16PM 56.0833 -132.7167 325° Northwest 260 299 18,000  Level Anchorage Center
09:18PM 56.1763 -132.8233 327° Northwest  Level FlightAware Approximate
09:19PM 56.2500 -132.8833 327° Northwest 190 219 18,000  Level Anchorage Center
09:20PM 56.3000 -132.9500 324° Northwest 270 311 18,000  Level Anchorage Center
09:21PM 56.3667 -133.0167 331° Northwest 260 299 18,000  Level Anchorage Center
09:22PM 56.4167 -133.1000 317° Northwest 270 311 18,000  Level Anchorage Center
09:23PM 56.4833 -133.1667 331° Northwest 260 299 18,000  Level Anchorage Center
09:25PM 56.6010 -133.3133 326° Northwest  Level FlightAware Approximate
09:25PM 56.6333 -133.3333 326° Northwest 250 288 18,000  Level Anchorage Center
09:26PM 56.7000 -133.4167 326° Northwest 260 299 18,000  Level Anchorage Center
09:27PM 56.7500 -133.4833 324° Northwest 260 299 18,000  Level Anchorage Center
09:28PM 56.8167 -133.5500 331° Northwest 260 299 18,000  Level Anchorage Center
09:29PM 56.8667 -133.6333 318° Northwest 260 299 18,000  Level Anchorage Center
09:30PM 56.9333 -133.7000 331° Northwest 270 311 18,000  Level Anchorage Center
09:31PM 57.0000 -133.7667 331° Northwest 260 299 18,000  Level Anchorage Center
09:32PM 57.0500 -133.8333 324° Northwest 260 299 18,000  Level Anchorage Center
09:33PM 57.1167 -133.9167 326° Northwest 260 299 18,000  Level Anchorage Center
09:34PM 57.1833 -133.9833 332° Northwest 260 299 18,000  Level Anchorage Center
09:35PM 57.2333 -134.0667 318° Northwest 270 311 18,000  Level Anchorage Center
09:36PM 57.3000 -134.1500 326° Northwest 270 311 18,000  Level Anchorage Center
09:37PM 57.3500 -134.2167 324° Northwest 250 288 18,000  Level Anchorage Center
09:38PM 57.4167 -134.3000 326° Northwest 260 299 18,000  Level Anchorage Center
09:39PM 57.4833 -134.3667 332° Northwest 260 299 18,000  Level Anchorage Center
09:40PM 57.5333 -134.4500 318° Northwest 260 299 18,000  Level Anchorage Center
09:41PM 57.6000 -134.5167 332° Northwest 260 299 18,000  Level Anchorage Center
09:42PM 57.6667 -134.6000 326° Northwest 260 299 18,000 -300 Level Anchorage Center
09:43PM 57.7167 -134.6667 325° Northwest 250 288 17,500 -1,380 Descending Anchorage Center
09:44PM 57.7833 -134.7500 326° Northwest 270 311 15,300 -2,160 Descending Anchorage Center
09:45PM 57.8333 -134.8167 325° Northwest 270 311 13,200 -2,040 Descending Anchorage Center
09:46PM 57.9000 -134.9000 326° Northwest 270 311 11,300 -1,620 Descending Anchorage Center
09:48PM 58.0167 -135.0500 326° Northwest 230 265 8,400 -1,440 Descending Anchorage Center
09:49PM 58.0667 -135.1167 325° Northwest 220 253 7,100 -720 Descending Anchorage Center
09:50PM 58.1167 -135.1833 325° Northwest 190 219 7,000  Descending Anchorage Center
09:51PM 58.1500 -135.2167 332° Northwest 160 184 7,100 -180 Climbing Anchorage Center
09:52PM 58.2000 -135.2167 360° North 190 219 6,700 -600 Descending Anchorage Center
09:53PM 58.2333 -135.1833 28° Northeast 170 196 5,900 -540 Descending Anchorage Center
09:54PM 58.2833 -135.1333 28° Northeast 160 184 5,700 -120 Descending Anchorage Center
09:55PM 58.3167 -135.1000 28° Northeast 170 196 5,700 -300 Level Anchorage Center
09:56PM 58.3500 -135.0333 46° Northeast 180 207 5,100 -1,140 Descending Anchorage Center
09:57PM 58.3500 -134.9333 90° East 170 196 3,500 -960 Descending Anchorage Center
09:58PM 58.3500 -134.8667 90° East 120 138 3,200 -720 Descending Anchorage Center
09:59PM 58.3500 -134.7833 90° East 150 173 2,100 -1,140 Descending Anchorage Center
10:00PM 58.3500 -134.7000 90° East 140 161 1,000 -720 Descending Anchorage Center
10:01PM 58.3500 -134.6333 90° East 120 138 700 -300 Descending Anchorage Center
10:03PM 58.3500 -134.5667 67° East  Level FlightAware Approximate
10:10PM 58.3550 -134.5763 67° East  Level Estimated
10:11PM 58.3500 -134.5667 67° East  Level FlightAware Approximate
10:12PM 58.3550 -134.5763 67° East  Level Estimated